createdAt,value
2019-04-10T00:05:27.712Z,12.97
2019-04-10T00:11:34.577Z,13.43
2019-04-10T00:17:40.921Z,13.27
2019-04-10T00:23:47.166Z,13.50
2019-04-10T00:29:53.034Z,13.17
2019-04-10T00:35:59.513Z,12.60
2019-04-10T00:42:05.492Z,13.30
2019-04-10T00:48:11.977Z,13.40
2019-04-10T00:54:18.254Z,13.27
2019-04-10T01:00:24.038Z,12.90
2019-04-10T01:06:30.405Z,13.57
2019-04-10T01:12:36.380Z,13.53
2019-04-10T01:18:42.227Z,12.80
2019-04-10T01:24:48.074Z,14.90
2019-04-10T01:30:54.946Z,12.33
2019-04-10T01:37:01.152Z,12.37
2019-04-10T01:43:12.937Z,12.80
2019-04-10T01:49:15.652Z,12.70
2019-04-10T01:55:25.763Z,13.30
2019-04-10T02:01:33.179Z,13.13
2019-04-10T02:07:39.013Z,11.87
2019-04-10T02:13:44.716Z,12.23
2019-04-10T02:19:50.748Z,12.27
2019-04-10T02:25:56.966Z,12.57
2019-04-10T02:32:04.131Z,10.70
2019-04-10T02:38:26.138Z,11.13
2019-04-10T02:44:20.179Z,11.80
2019-04-10T02:50:27.370Z,11.37
2019-04-10T02:56:33.632Z,11.00
2019-04-10T03:02:41.590Z,11.00
2019-04-10T03:09:03.451Z,12.00
2019-04-10T03:14:55.124Z,13.70
2019-04-10T03:21:01.176Z,11.83
2019-04-10T03:27:08.709Z,12.40
2019-04-10T03:33:33.774Z,12.17
2019-04-10T03:39:40.558Z,12.97
2019-04-10T03:45:46.731Z,12.73
2019-04-10T03:51:52.753Z,12.13
2019-04-10T03:57:58.738Z,14.10
2019-04-10T04:04:04.980Z,12.17
2019-04-10T04:10:11.330Z,11.43
2019-04-10T04:16:17.381Z,12.50
2019-04-10T04:22:23.167Z,11.90
2019-04-10T04:28:29.820Z,12.47
2019-04-10T04:34:36.714Z,11.53
2019-04-10T04:40:42.521Z,12.53
2019-04-10T04:46:48.362Z,12.60
2019-04-10T04:52:54.208Z,12.40
2019-04-10T04:58:59.989Z,11.77
2019-04-10T05:05:06.637Z,11.93
2019-04-10T05:11:13.825Z,11.83
2019-04-10T05:17:20.008Z,11.10
2019-04-10T05:23:26.679Z,12.70
2019-04-10T05:29:32.658Z,10.53
2019-04-10T05:35:39.774Z,11.03
2019-04-10T05:41:46.937Z,10.87
2019-04-10T05:47:52.878Z,9.87
2019-04-10T05:54:00.064Z,11.17
2019-04-10T06:00:08.404Z,10.40
2019-04-10T06:06:14.591Z,10.07
2019-04-10T06:12:20.418Z,11.50
2019-04-10T06:18:27.156Z,10.17
2019-04-10T06:24:33.095Z,9.67
2019-04-10T06:30:39.801Z,10.23
2019-04-10T06:36:45.950Z,8.77
2019-04-10T06:42:54.897Z,10.20
2019-04-10T06:49:00.419Z,9.67
2019-04-10T06:55:06.685Z,8.83
2019-04-10T07:01:14.681Z,9.70
2019-04-10T07:07:23.870Z,8.80
2019-04-10T07:13:28.695Z,9.00
2019-04-10T07:19:34.530Z,10.27
2019-04-10T07:25:44.617Z,9.63
2019-04-10T07:31:48.785Z,9.67
2019-04-10T07:37:56.966Z,10.53
2019-04-10T07:44:02.188Z,9.57
2019-04-10T07:50:10.329Z,11.00
2019-04-10T07:56:20.388Z,9.63
2019-04-10T08:02:24.096Z,10.50
2019-04-10T08:08:30.078Z,11.87
2019-04-10T08:14:35.947Z,14.00
2019-04-10T08:20:42.502Z,11.63
2019-04-10T08:26:49.234Z,12.83
2019-04-10T08:33:00.713Z,11.30
2019-04-10T08:39:02.901Z,10.60
2019-04-10T08:45:09.224Z,11.23
2019-04-10T08:51:15.650Z,14.40
2019-04-10T08:57:21.548Z,11.80
2019-04-10T09:03:27.386Z,12.80
2019-04-10T09:09:33.919Z,12.57
2019-04-10T09:15:40.277Z,12.07
2019-04-10T09:21:46.256Z,11.77
2019-04-10T09:27:52.071Z,12.67
2019-04-10T09:33:59.091Z,14.17
2019-04-10T09:40:05.765Z,13.10
2019-04-10T09:46:12.638Z,12.83
2019-04-10T09:52:18.785Z,12.60
2019-04-10T09:58:24.629Z,13.20
2019-04-10T10:04:31.274Z,13.70
2019-04-10T10:10:38.392Z,15.03
2019-04-10T10:16:46.275Z,13.90
2019-04-10T10:22:52.127Z,13.80
2019-04-10T10:28:58.586Z,15.17
2019-04-10T10:35:05.069Z,14.87
2019-04-10T10:41:10.944Z,13.13
2019-04-10T10:47:17.068Z,13.43
2019-04-10T10:53:24.066Z,14.40
2019-04-10T10:59:29.896Z,16.70
2019-04-10T11:05:37.190Z,14.10
2019-04-10T11:11:43.419Z,15.00
2019-04-10T11:17:50.000Z,15.73
2019-04-10T11:23:56.150Z,15.13
2019-04-10T11:30:03.487Z,14.83
2019-04-10T11:36:09.891Z,15.50
2019-04-10T11:42:16.440Z,15.47
2019-04-10T11:48:25.637Z,17.47
2019-04-10T11:54:35.471Z,15.43
2019-04-10T12:00:50.453Z,15.33
2019-04-10T12:06:54.058Z,15.70
2019-04-10T12:12:59.885Z,16.00
2019-04-10T12:19:06.696Z,16.27
2019-04-10T12:25:13.047Z,14.87
2019-04-10T12:31:19.734Z,16.17
2019-04-10T12:37:25.646Z,16.57
2019-04-10T12:43:32.567Z,15.57
2019-04-10T12:49:39.409Z,15.43
2019-04-10T12:55:47.193Z,14.43
2019-04-10T13:01:53.987Z,14.93
2019-04-10T13:08:12.897Z,15.00
2019-04-10T13:14:08.574Z,13.87
2019-04-10T13:20:16.079Z,15.63
2019-04-10T13:26:21.911Z,14.17
2019-04-10T13:32:27.877Z,13.07
2019-04-10T13:38:35.440Z,13.57
2019-04-10T13:44:42.539Z,13.80
2019-04-10T13:50:48.752Z,14.83
2019-04-10T13:56:55.223Z,14.43
2019-04-10T14:03:01.797Z,14.10
2019-04-10T14:09:31.273Z,14.73
2019-04-10T14:15:27.389Z,12.70
2019-04-10T14:21:33.275Z,13.33
2019-04-10T14:27:40.905Z,12.50
2019-04-10T14:33:47.183Z,12.83
2019-04-10T14:39:53.650Z,11.93
2019-04-10T14:45:59.741Z,10.90
2019-04-10T14:52:05.770Z,9.77
2019-04-10T14:58:21.454Z,9.70
2019-04-10T15:04:19.953Z,10.33
2019-04-10T15:10:25.737Z,10.93
2019-04-10T15:16:31.876Z,9.93
2019-04-10T15:22:37.903Z,8.43
2019-04-10T15:28:43.850Z,8.60
2019-04-10T15:34:49.741Z,8.47
2019-04-10T15:40:56.696Z,9.13
2019-04-10T15:47:13.437Z,9.07
2019-04-10T15:53:11.723Z,7.60
2019-04-10T15:59:19.882Z,8.27
2019-04-10T16:05:26.189Z,8.03
2019-04-10T16:11:50.157Z,7.97
2019-04-10T16:18:05.266Z,8.40
2019-04-10T16:24:12.295Z,8.70
2019-04-10T16:30:22.015Z,9.33
2019-04-10T16:36:27.981Z,8.30
2019-04-10T16:42:34.830Z,8.13
2019-04-10T16:48:40.636Z,8.17
2019-04-10T16:54:46.567Z,8.13
2019-04-10T17:00:53.768Z,8.73
2019-04-10T17:07:00.856Z,8.33
2019-04-10T17:13:08.807Z,8.03
2019-04-10T17:19:15.976Z,8.27
2019-04-10T17:25:22.186Z,7.57
2019-04-10T17:31:30.813Z,8.93
2019-04-10T17:44:05.622Z,8.03
2019-04-10T17:50:14.141Z,7.90
2019-04-10T17:56:20.162Z,8.47
2019-04-10T18:02:26.355Z,8.17
2019-04-10T18:08:32.753Z,8.80
2019-04-10T18:14:40.888Z,7.70
2019-04-10T18:20:49.518Z,8.27
2019-04-10T18:26:57.873Z,8.63
2019-04-10T18:33:05.075Z,8.17
2019-04-10T18:39:15.714Z,8.13
2019-04-10T18:45:24.198Z,8.37
2019-04-10T18:51:30.263Z,7.57
2019-04-10T18:57:36.275Z,7.63
2019-04-10T19:04:07.785Z,7.27
2019-04-10T19:10:14.327Z,7.67
2019-04-10T19:16:21.480Z,7.40
2019-04-10T19:22:28.985Z,8.00
2019-04-10T19:28:38.540Z,6.57
2019-04-10T19:34:44.036Z,6.77
2019-04-10T19:40:50.079Z,6.43
2019-04-10T19:46:55.988Z,6.73
2019-04-10T19:53:02.650Z,5.50
2019-04-10T19:59:08.870Z,6.97
2019-04-10T20:05:16.961Z,5.67
2019-04-10T20:11:33.817Z,6.00
2019-04-10T20:17:33.323Z,6.10
2019-04-10T20:23:40.392Z,6.20
2019-04-10T20:29:47.731Z,4.97
2019-04-10T20:35:54.353Z,5.37
2019-04-10T20:42:02.514Z,5.63
2019-04-10T20:48:08.988Z,7.77
2019-04-10T20:54:15.224Z,5.17
2019-04-10T21:00:30.073Z,5.73
2019-04-10T21:06:40.877Z,6.10
2019-04-10T21:12:46.494Z,8.00
2019-04-10T21:18:53.892Z,5.17
2019-04-10T21:25:00.993Z,6.00
2019-04-10T21:31:25.525Z,4.97
2019-04-10T21:37:34.655Z,4.83
2019-04-10T21:43:42.969Z,5.97
2019-04-10T21:49:48.878Z,4.90
2019-04-10T21:55:55.721Z,4.37
2019-04-10T22:02:02.723Z,4.80
2019-04-10T22:08:27.507Z,4.83
2019-04-10T22:14:33.546Z,4.60
2019-04-10T22:20:39.629Z,4.53
2019-04-10T22:26:45.442Z,4.67
2019-04-10T22:32:51.887Z,5.33
2019-04-10T22:38:58.378Z,4.33
2019-04-10T22:45:04.494Z,5.17
2019-04-10T22:51:11.179Z,4.70
2019-04-10T22:57:17.288Z,4.50
2019-04-10T23:03:43.156Z,4.40
2019-04-10T23:09:49.116Z,4.43
2019-04-10T23:15:55.714Z,4.57
2019-04-10T23:22:01.511Z,4.90
2019-04-10T23:28:09.506Z,7.33
2019-04-10T23:34:15.395Z,5.10
2019-04-10T23:40:23.011Z,6.10
2019-04-10T23:46:28.832Z,5.30
2019-04-10T23:52:34.558Z,5.03
2019-04-10T23:58:40.549Z,5.07
